Time;durP1;ratioP1;P1;durP2;ratioP2;P2;SDS_P1;SDS_P2;PMS_P1;PMS_P2;Temp;Humidity;BMP_temperature;BMP_pressure;BME280_temperature;BME280_humidity;BME280_pressure;Samples;Min_cycle;Max_cycle;Signal;HPM_P1;HPM_P2
2024/02/09 00:00:06;;;;;;;;;;;-9.40;99.90;;;;;;5063585;28;19929;-57
2024/02/09 00:02:41;;;;;;;;;;;-9.50;99.90;;;;;;5056918;28;20042;-69
2024/02/09 00:05:09;;;;;;;;;;;-9.50;99.90;;;;;;5055665;28;20272;-62
2024/02/09 00:07:36;;;;;;;;;;;-9.50;99.90;;;;;;5058376;28;20297;-61
2024/02/09 00:10:04;;;;;;;;;;;-9.50;99.90;;;;;;5056472;28;20373;-63
2024/02/09 00:12:34;;;;;;;;;;;-9.50;99.90;;;;;;5054286;28;19931;-59
2024/02/09 00:15:06;;;;;;;;;;;-9.50;99.90;;;;;;5050697;28;19979;-63
2024/02/09 00:17:33;;;;;;;;;;;-9.50;99.90;;;;;;5049589;28;19929;-61
2024/02/09 00:20:01;;;;;;;;;;;-9.50;99.90;;;;;;5059485;28;19931;-58
2024/02/09 00:22:28;;;;;;;;;;;-9.50;99.90;;;;;;5051615;28;19979;-59
2024/02/09 00:24:56;;;;;;;;;;;-9.50;99.90;;;;;;5054199;28;20355;-61
2024/02/09 00:27:23;;;;;;;;;;;-9.50;99.90;;;;;;5056310;28;19929;-57
2024/02/09 00:29:50;;;;;;;;;;;-9.50;99.90;;;;;;5054016;28;19924;-59
2024/02/09 00:32:17;;;;;;;;;;;-9.40;99.90;;;;;;5056058;28;19930;-58
2024/02/09 00:34:45;;;;;;;;;;;-9.40;99.90;;;;;;5057341;28;19929;-61
2024/02/09 00:37:12;;;;;;;;;;;-9.30;99.90;;;;;;5056853;28;20409;-57
2024/02/09 00:39:39;;;;;;;;;;;-9.30;99.90;;;;;;5054353;28;19928;-64
2024/02/09 00:42:06;;;;;;;;;;;-9.30;99.90;;;;;;5054092;28;19929;-57
2024/02/09 00:44:33;;;;;;;;;;;-9.30;99.90;;;;;;5049908;28;20031;-57
2024/02/09 00:47:02;;;;;;;;;;;-9.20;99.90;;;;;;5052989;28;19929;-66
2024/02/09 00:49:30;;;;;;;;;;;-9.00;99.90;;;;;;5053654;28;20318;-65
2024/02/09 00:52:00;;;;;;;;;;;-9.00;99.90;;;;;;5053224;28;19931;-59
2024/02/09 00:54:29;;;;;;;;;;;-8.90;99.90;;;;;;5052787;28;19928;-60
2024/02/09 00:56:56;;;;;;;;;;;-8.80;99.90;;;;;;5050305;28;19951;-60
2024/02/09 00:59:23;;;;;;;;;;;-8.70;99.90;;;;;;5051584;28;20008;-58
2024/02/09 01:01:53;;;;;;;;;;;-8.50;99.90;;;;;;5047585;28;20023;-61
2024/02/09 01:04:33;;;;;;;;;;;-8.30;99.90;;;;;;5061920;28;20294;-57
2024/02/09 01:07:04;;;;;;;;;;;-8.00;99.90;;;;;;5062363;28;19931;-70
2024/02/09 01:09:34;;;;;;;;;;;-7.80;99.90;;;;;;5067055;28;19928;-58
2024/02/09 02:45:27;;;;;;;;;;;-4.60;99.90;;;;;;5054459;28;20014;-64
2024/02/09 03:04:27;;;;;;;;;;;-4.40;99.90;;;;;;5060498;28;20433;-64
2024/02/09 03:06:54;;;;;;;;;;;-4.40;99.90;;;;;;5062407;28;19931;-65
2024/02/09 03:09:41;;;;;;;;;;;-4.30;99.90;;;;;;5058653;28;19924;-62
2024/02/09 03:12:12;;;;;;;;;;;-4.30;99.90;;;;;;5056317;28;20025;-61
2024/02/09 03:14:39;;;;;;;;;;;-4.30;99.90;;;;;;5062070;28;19924;-63
2024/02/09 03:17:06;;;;;;;;;;;-4.20;99.90;;;;;;5059505;28;19929;-63
2024/02/09 03:19:35;;;;;;;;;;;-4.20;99.90;;;;;;5058927;28;19935;-62
2024/02/09 03:22:02;;;;;;;;;;;-4.10;99.90;;;;;;5060985;28;19950;-59
2024/02/09 03:24:29;;;;;;;;;;;-4.10;99.90;;;;;;5051845;28;20491;-60
2024/02/09 03:26:56;;;;;;;;;;;-4.10;99.90;;;;;;5063403;28;20460;-61
2024/02/09 03:29:23;;;;;;;;;;;-4.00;99.90;;;;;;5052177;28;20471;-58
2024/02/09 03:31:50;;;;;;;;;;;-4.00;99.90;;;;;;5057309;28;19928;-62
2024/02/09 03:34:16;;;;;;;;;;;-4.00;99.90;;;;;;5051150;28;20035;-60
2024/02/09 03:36:44;;;;;;;;;;;-3.90;99.90;;;;;;5060237;28;19945;-60
2024/02/09 03:39:11;;;;;;;;;;;-3.90;99.90;;;;;;5054964;28;19970;-60
2024/02/09 03:41:37;;;;;;;;;;;-3.90;99.90;;;;;;5057510;28;19932;-64
2024/02/09 03:44:04;;;;;;;;;;;-3.90;99.90;;;;;;5056770;28;19940;-58
2024/02/09 03:46:35;;;;;;;;;;;-3.90;99.90;;;;;;5053176;28;19924;-63
2024/02/09 03:49:04;;;;;;;;;;;-3.90;99.90;;;;;;5049840;28;20368;-66
2024/02/09 03:51:31;;;;;;;;;;;-3.90;99.90;;;;;;5057147;28;20341;-58
2024/02/09 03:53:59;;;;;;;;;;;-3.90;99.90;;;;;;5057714;28;20374;-63
2024/02/09 03:56:26;;;;;;;;;;;-3.90;99.90;;;;;;5057729;28;19970;-59
2024/02/09 03:58:53;;;;;;;;;;;-3.90;99.90;;;;;;5053529;28;19936;-58
2024/02/09 04:01:21;;;;;;;;;;;-3.90;99.90;;;;;;5052442;28;19925;-61
2024/02/09 04:03:48;;;;;;;;;;;-3.90;99.90;;;;;;5056798;28;19935;-59
2024/02/09 04:06:15;;;;;;;;;;;-3.80;99.90;;;;;;5054988;28;20396;-61
2024/02/09 04:08:45;;;;;;;;;;;-3.80;99.90;;;;;;5054391;28;20350;-60
2024/02/09 04:11:19;;;;;;;;;;;-3.80;99.90;;;;;;5051351;28;19971;-59
2024/02/09 04:13:46;;;;;;;;;;;-3.80;99.90;;;;;;5051435;28;19983;-60
2024/02/09 04:16:18;;;;;;;;;;;-3.80;99.90;;;;;;5054870;28;20543;-71
2024/02/09 04:18:46;;;;;;;;;;;-3.70;99.90;;;;;;5052644;28;19932;-65
2024/02/09 04:21:15;;;;;;;;;;;-3.70;99.90;;;;;;5052840;28;19929;-60
2024/02/09 04:23:42;;;;;;;;;;;-3.70;99.90;;;;;;5051152;28;19929;-66
2024/02/09 04:26:09;;;;;;;;;;;-3.60;99.90;;;;;;5053477;28;19948;-58
2024/02/09 04:28:36;;;;;;;;;;;-3.60;99.90;;;;;;5052854;28;20424;-58
2024/02/09 04:31:03;;;;;;;;;;;-3.60;99.90;;;;;;5050492;28;20019;-58
2024/02/09 04:33:31;;;;;;;;;;;-3.60;99.90;;;;;;5052221;28;19968;-65
2024/02/09 04:35:58;;;;;;;;;;;-3.60;99.90;;;;;;5051242;28;19925;-62
2024/02/09 04:38:26;;;;;;;;;;;-3.50;99.90;;;;;;5058955;28;19925;-58
2024/02/09 04:40:55;;;;;;;;;;;-3.50;99.90;;;;;;5056605;28;19932;-60
2024/02/09 04:43:23;;;;;;;;;;;-3.50;99.90;;;;;;5051225;28;19968;-60
2024/02/09 04:45:51;;;;;;;;;;;-3.50;99.90;;;;;;5050825;28;19924;-62
2024/02/09 04:48:18;;;;;;;;;;;-3.50;99.90;;;;;;5050543;28;19925;-65
2024/02/09 04:50:46;;;;;;;;;;;-3.50;99.90;;;;;;5054282;28;19925;-62
2024/02/09 04:53:15;;;;;;;;;;;-3.50;99.90;;;;;;5062054;28;19963;-59
2024/02/09 04:55:42;;;;;;;;;;;-3.50;99.90;;;;;;5047431;28;19924;-66
2024/02/09 04:58:09;;;;;;;;;;;-3.50;99.90;;;;;;5055093;28;19925;-62
2024/02/09 05:00:36;;;;;;;;;;;-3.50;99.90;;;;;;5052183;28;19925;-58
2024/02/09 05:03:04;;;;;;;;;;;-3.50;99.90;;;;;;5052154;28;19936;-64
2024/02/09 05:05:32;;;;;;;;;;;-3.50;99.90;;;;;;5053179;28;19931;-59
2024/02/09 05:08:00;;;;;;;;;;;-3.50;99.90;;;;;;5055261;28;19925;-59
2024/02/09 05:10:27;;;;;;;;;;;-3.50;99.90;;;;;;5056125;28;19929;-61
2024/02/09 05:12:56;;;;;;;;;;;-3.60;99.90;;;;;;5054029;28;19924;-59
2024/02/09 05:15:23;;;;;;;;;;;-3.50;99.90;;;;;;5053585;28;19932;-60
2024/02/09 05:17:50;;;;;;;;;;;-3.50;99.90;;;;;;5054342;28;19929;-60
2024/02/09 05:20:17;;;;;;;;;;;-3.50;99.90;;;;;;5050713;28;19932;-58
2024/02/09 05:22:46;;;;;;;;;;;-3.50;99.90;;;;;;5052451;28;19979;-61
2024/02/09 05:25:14;;;;;;;;;;;-3.50;99.90;;;;;;5054718;28;19947;-59
2024/02/09 05:27:43;;;;;;;;;;;-3.50;99.90;;;;;;5049160;28;19924;-67
2024/02/09 05:30:11;;;;;;;;;;;-3.40;99.90;;;;;;5057451;28;19928;-60
2024/02/09 05:32:38;;;;;;;;;;;-3.40;99.90;;;;;;5057160;28;20341;-63
2024/02/09 05:35:06;;;;;;;;;;;-3.40;99.90;;;;;;5055147;28;19924;-69
2024/02/09 05:37:33;;;;;;;;;;;-3.40;99.90;;;;;;5055297;28;20368;-58
2024/02/09 05:40:00;;;;;;;;;;;-3.40;99.90;;;;;;5055832;28;19931;-61
2024/02/09 05:42:27;;;;;;;;;;;-3.40;99.90;;;;;;5056000;28;19925;-73
2024/02/09 05:44:54;;;;;;;;;;;-3.40;99.90;;;;;;5057428;28;19950;-62
2024/02/09 05:47:21;;;;;;;;;;;-3.40;99.90;;;;;;5055785;28;19932;-58
2024/02/09 05:49:48;;;;;;;;;;;-3.40;99.90;;;;;;5062518;28;20828;-71
2024/02/09 05:52:15;;;;;;;;;;;-3.40;99.90;;;;;;5058519;28;19986;-62
2024/02/09 05:54:42;;;;;;;;;;;-3.40;99.90;;;;;;5058364;28;19925;-59
2024/02/09 05:57:09;;;;;;;;;;;-3.40;99.90;;;;;;5058063;28;19924;-60
2024/02/09 05:59:36;;;;;;;;;;;-3.40;99.90;;;;;;5056263;28;19935;-57
2024/02/09 06:02:02;;;;;;;;;;;-3.40;99.90;;;;;;5051854;28;20023;-59
2024/02/09 06:04:34;;;;;;;;;;;-3.40;99.90;;;;;;5056571;28;19929;-63
2024/02/09 06:07:01;;;;;;;;;;;-3.30;99.90;;;;;;5054336;28;19998;-67
2024/02/09 06:09:29;;;;;;;;;;;-3.40;99.90;;;;;;5056401;28;19929;-57
2024/02/09 06:11:57;;;;;;;;;;;-3.40;99.90;;;;;;5055108;28;19940;-60
2024/02/09 06:14:24;;;;;;;;;;;-3.40;99.90;;;;;;5059091;28;19982;-59
2024/02/09 06:16:51;;;;;;;;;;;-3.30;99.90;;;;;;5059392;28;19972;-59
2024/02/09 06:19:20;;;;;;;;;;;-3.40;99.90;;;;;;5055825;28;19958;-64
2024/02/09 06:21:47;;;;;;;;;;;-3.40;99.90;;;;;;5054574;28;20019;-60
2024/02/09 06:24:14;;;;;;;;;;;-3.30;99.90;;;;;;5050738;28;19928;-61
2024/02/09 06:26:42;;;;;;;;;;;-3.30;99.90;;;;;;5053887;28;20185;-68
2024/02/09 06:29:10;;;;;;;;;;;-3.30;99.90;;;;;;5056336;28;20032;-58
2024/02/09 06:31:42;;;;;;;;;;;-3.20;99.90;;;;;;5053061;28;19925;-61
2024/02/09 06:34:09;;;;;;;;;;;-3.20;99.90;;;;;;5060432;28;19935;-58
2024/02/09 06:36:36;;;;;;;;;;;-3.20;99.90;;;;;;5071632;28;19929;-59
2024/02/09 06:39:03;;;;;;;;;;;-3.20;99.90;;;;;;5055911;28;19991;-60
2024/02/09 06:41:30;;;;;;;;;;;-3.20;99.90;;;;;;5041006;28;20337;-61
2024/02/09 06:43:57;;;;;;;;;;;-3.10;99.90;;;;;;5052194;28;19936;-61
2024/02/09 06:46:25;;;;;;;;;;;-3.10;99.90;;;;;;5056566;28;19933;-62
2024/02/09 06:48:56;;;;;;;;;;;-3.00;99.90;;;;;;5058120;28;20023;-58
2024/02/09 06:51:23;;;;;;;;;;;-3.00;99.90;;;;;;5051638;28;19928;-57
2024/02/09 06:53:51;;;;;;;;;;;-3.00;99.90;;;;;;5051660;28;19931;-62
2024/02/09 06:56:18;;;;;;;;;;;-3.00;99.90;;;;;;5057259;28;19929;-61
2024/02/09 06:58:49;;;;;;;;;;;-3.00;99.90;;;;;;5057500;28;19924;-63
2024/02/09 07:01:18;;;;;;;;;;;-3.00;99.90;;;;;;5052267;28;19929;-61
2024/02/09 07:03:45;;;;;;;;;;;-3.00;99.90;;;;;;5060121;28;20390;-64
2024/02/09 07:06:12;;;;;;;;;;;-2.90;99.90;;;;;;5054144;28;19925;-63
2024/02/09 07:08:40;;;;;;;;;;;-2.90;99.90;;;;;;5056461;28;19928;-60
2024/02/09 07:11:13;;;;;;;;;;;-2.90;99.90;;;;;;5052570;28;19928;-59
2024/02/09 07:13:45;;;;;;;;;;;-2.90;99.90;;;;;;5053373;28;20338;-60
2024/02/09 07:16:12;;;;;;;;;;;-2.90;99.90;;;;;;5054540;28;19939;-62
2024/02/09 07:18:41;;;;;;;;;;;-2.80;99.90;;;;;;5053135;28;19974;-60
2024/02/09 07:21:09;;;;;;;;;;;-2.80;99.90;;;;;;5052753;28;20264;-58
2024/02/09 07:23:37;;;;;;;;;;;-2.80;99.90;;;;;;5055882;28;19964;-61
2024/02/09 07:26:10;;;;;;;;;;;-2.70;99.90;;;;;;5056799;28;19929;-58
2024/02/09 07:28:40;;;;;;;;;;;-2.70;99.90;;;;;;5060242;28;19928;-69
2024/02/09 07:31:09;;;;;;;;;;;-2.60;99.90;;;;;;5041941;28;19926;-58
2024/02/09 07:33:36;;;;;;;;;;;-2.60;99.90;;;;;;5054655;28;19924;-58
2024/02/09 07:36:04;;;;;;;;;;;-2.60;99.90;;;;;;5054882;28;19982;-67
2024/02/09 07:38:31;;;;;;;;;;;-2.60;99.90;;;;;;5055176;28;19933;-61
2024/02/09 07:40:57;;;;;;;;;;;-2.50;99.90;;;;;;5054103;28;19978;-57
2024/02/09 07:43:25;;;;;;;;;;;-2.50;99.90;;;;;;5056352;28;19929;-63
2024/02/09 07:45:52;;;;;;;;;;;-2.50;99.90;;;;;;5055617;28;19936;-58
2024/02/09 07:48:19;;;;;;;;;;;-2.60;99.90;;;;;;5055131;28;19968;-60
2024/02/09 07:50:51;;;;;;;;;;;-2.60;99.90;;;;;;5050519;28;19978;-62
2024/02/09 07:53:18;;;;;;;;;;;-2.50;99.90;;;;;;5052468;28;19925;-61
2024/02/09 07:55:45;;;;;;;;;;;-2.50;99.90;;;;;;5052138;28;19928;-63
2024/02/09 07:58:11;;;;;;;;;;;-2.50;99.90;;;;;;5051992;28;19924;-61
2024/02/09 08:00:38;;;;;;;;;;;-2.40;99.90;;;;;;5053692;28;19932;-62
2024/02/09 08:03:05;;;;;;;;;;;-2.40;99.90;;;;;;5053002;28;21394;-58
2024/02/09 08:05:35;;;;;;;;;;;-2.30;99.90;;;;;;5054269;28;19924;-62
2024/02/09 08:08:03;;;;;;;;;;;-2.30;99.90;;;;;;5047683;28;20326;-57
2024/02/09 08:10:32;;;;;;;;;;;-2.20;99.90;;;;;;5049279;28;19928;-58
2024/02/09 08:12:59;;;;;;;;;;;-2.10;99.90;;;;;;5049726;28;19932;-62
2024/02/09 08:15:26;;;;;;;;;;;-2.10;99.90;;;;;;5061522;28;20017;-58
2024/02/09 08:17:53;;;;;;;;;;;-2.00;99.90;;;;;;5056690;28;19925;-57
2024/02/09 08:20:20;;;;;;;;;;;-2.00;99.90;;;;;;5056884;28;20682;-61
2024/02/09 08:22:47;;;;;;;;;;;-1.90;99.90;;;;;;5050663;28;20366;-63
2024/02/09 08:25:15;;;;;;;;;;;-1.90;99.90;;;;;;5051730;28;19928;-64
2024/02/09 08:27:42;;;;;;;;;;;-1.90;99.90;;;;;;5054337;28;20429;-61
2024/02/09 08:30:09;;;;;;;;;;;-1.80;99.90;;;;;;5054748;28;19929;-60
2024/02/09 08:32:37;;;;;;;;;;;-1.70;99.90;;;;;;5058251;28;19925;-59
2024/02/09 08:35:05;;;;;;;;;;;-1.70;99.90;;;;;;5056918;28;19964;-58
2024/02/09 08:37:32;;;;;;;;;;;-1.60;99.90;;;;;;5062068;28;19935;-59
2024/02/09 08:39:59;;;;;;;;;;;-1.60;99.90;;;;;;5057306;28;20031;-59
2024/02/09 08:42:26;;;;;;;;;;;-1.50;99.90;;;;;;5056960;28;19964;-63
2024/02/09 08:44:53;;;;;;;;;;;-1.40;99.90;;;;;;5029312;28;19959;-64
2024/02/09 08:47:23;;;;;;;;;;;-1.30;99.90;;;;;;5053438;28;19929;-60
2024/02/09 08:49:50;;;;;;;;;;;-1.20;99.90;;;;;;5052595;28;19940;-58
2024/02/09 08:52:17;;;;;;;;;;;-1.20;99.90;;;;;;5059324;28;20345;-62
2024/02/09 08:54:47;;;;;;;;;;;-1.10;99.90;;;;;;5055470;28;20097;-64
2024/02/09 08:57:20;;;;;;;;;;;-1.00;99.90;;;;;;5050347;28;20331;-62
2024/02/09 08:59:47;;;;;;;;;;;-0.90;99.90;;;;;;5055661;28;19986;-61
2024/02/09 09:02:14;;;;;;;;;;;-0.80;99.90;;;;;;5051576;28;20379;-67
2024/02/09 09:04:41;;;;;;;;;;;-0.70;99.90;;;;;;5052384;28;20027;-58
2024/02/09 09:07:08;;;;;;;;;;;-0.60;99.90;;;;;;5051227;28;20019;-62
2024/02/09 09:09:35;;;;;;;;;;;-0.50;99.90;;;;;;5052328;28;20285;-63
2024/02/09 09:12:05;;;;;;;;;;;-0.40;99.90;;;;;;5055059;28;20379;-62
2024/02/09 09:14:36;;;;;;;;;;;-0.40;99.90;;;;;;5055687;28;19964;-60
2024/02/09 09:17:04;;;;;;;;;;;-0.30;99.90;;;;;;5035234;28;19947;-67
2024/02/09 09:19:46;;;;;;;;;;;-0.20;99.90;;;;;;5052154;28;19952;-64
2024/02/09 09:22:14;;;;;;;;;;;-0.10;99.90;;;;;;5053337;28;19929;-61
2024/02/09 09:24:41;;;;;;;;;;;0.00;99.90;;;;;;5056422;28;19952;-61
2024/02/09 09:27:10;;;;;;;;;;;0.10;99.90;;;;;;5055909;28;20306;-67
2024/02/09 09:29:37;;;;;;;;;;;0.10;99.90;;;;;;5051037;28;19924;-61
2024/02/09 09:32:04;;;;;;;;;;;0.30;99.90;;;;;;5052271;28;19935;-64
2024/02/09 09:34:32;;;;;;;;;;;0.50;99.90;;;;;;5049430;28;20298;-58
2024/02/09 09:36:59;;;;;;;;;;;0.60;99.90;;;;;;5051515;28;20390;-59
2024/02/09 09:39:26;;;;;;;;;;;0.70;99.90;;;;;;5052310;28;19925;-60
2024/02/09 09:41:55;;;;;;;;;;;0.80;99.90;;;;;;5055324;28;20509;-65
2024/02/09 09:44:26;;;;;;;;;;;0.80;99.90;;;;;;5052946;28;20386;-58
2024/02/09 09:46:54;;;;;;;;;;;0.80;99.90;;;;;;5053018;28;20027;-58
2024/02/09 09:49:22;;;;;;;;;;;0.80;99.90;;;;;;5046239;28;19933;-59
2024/02/09 09:51:51;;;;;;;;;;;0.80;99.90;;;;;;5054296;28;19933;-67
2024/02/09 09:54:21;;;;;;;;;;;0.80;99.90;;;;;;5052023;28;20726;-65
2024/02/09 09:56:49;;;;;;;;;;;0.90;99.90;;;;;;5047520;28;19935;-63
2024/02/09 09:59:19;;;;;;;;;;;1.00;99.90;;;;;;5052526;28;20016;-63
2024/02/09 10:01:49;;;;;;;;;;;1.10;99.90;;;;;;5052529;28;19935;-62
2024/02/09 10:04:16;;;;;;;;;;;1.20;99.90;;;;;;5051981;28;19932;-63
2024/02/09 10:06:44;;;;;;;;;;;1.20;99.90;;;;;;5057673;28;20397;-63
2024/02/09 10:09:12;;;;;;;;;;;1.20;99.90;;;;;;5056060;28;19953;-68
2024/02/09 10:11:41;;;;;;;;;;;1.10;99.90;;;;;;5049055;28;20271;-58
2024/02/09 10:14:15;;;;;;;;;;;1.10;99.90;;;;;;5053462;28;19928;-61
2024/02/09 10:16:44;;;;;;;;;;;1.10;99.90;;;;;;5050208;28;19956;-63
2024/02/09 10:19:13;;;;;;;;;;;1.10;99.90;;;;;;5049375;28;20352;-63
2024/02/09 10:21:41;;;;;;;;;;;1.00;99.90;;;;;;5049226;28;19968;-58
2024/02/09 10:24:22;;;;;;;;;;;1.00;99.90;;;;;;5051260;28;19932;-63
2024/02/09 10:26:49;;;;;;;;;;;1.00;99.90;;;;;;5046944;28;20442;-67
2024/02/09 10:29:17;;;;;;;;;;;1.10;99.90;;;;;;5052844;28;20035;-60
2024/02/09 10:31:48;;;;;;;;;;;1.10;99.90;;;;;;5053237;28;19964;-65
2024/02/09 10:34:15;;;;;;;;;;;1.00;99.90;;;;;;5053715;28;20432;-65
2024/02/09 10:36:42;;;;;;;;;;;0.90;99.90;;;;;;5060750;28;19951;-63
2024/02/09 10:39:09;;;;;;;;;;;0.80;99.90;;;;;;5054786;28;19936;-62
2024/02/09 10:41:36;;;;;;;;;;;0.80;99.90;;;;;;5056966;28;19932;-58
2024/02/09 10:44:04;;;;;;;;;;;0.80;99.90;;;;;;5059479;28;19980;-58
2024/02/09 10:46:33;;;;;;;;;;;0.80;99.90;;;;;;5058249;28;19935;-59
2024/02/09 10:49:01;;;;;;;;;;;0.70;99.90;;;;;;5059896;28;20000;-60
2024/02/09 10:51:32;;;;;;;;;;;0.50;99.90;;;;;;5060732;28;19925;-59
2024/02/09 10:54:04;;;;;;;;;;;0.50;99.90;;;;;;5055326;28;19932;-61
2024/02/09 10:56:33;;;;;;;;;;;0.40;99.90;;;;;;5057171;28;20474;-61
2024/02/09 10:59:00;;;;;;;;;;;0.30;99.90;;;;;;5054365;28;19998;-60
2024/02/09 11:01:27;;;;;;;;;;;0.20;99.90;;;;;;5059299;28;19960;-59
2024/02/09 11:03:54;;;;;;;;;;;0.20;99.90;;;;;;5056013;28;19929;-59
2024/02/09 11:06:21;;;;;;;;;;;0.10;99.90;;;;;;5056238;28;19940;-61
2024/02/09 11:08:49;;;;;;;;;;;0.00;99.90;;;;;;5052660;28;20006;-62
2024/02/09 11:11:15;;;;;;;;;;;0.00;99.90;;;;;;5055832;28;19932;-65
2024/02/09 11:13:43;;;;;;;;;;;0.00;99.90;;;;;;5054018;28;19925;-66
2024/02/09 11:16:09;;;;;;;;;;;-0.10;99.90;;;;;;5058007;28;19979;-58
2024/02/09 11:18:37;;;;;;;;;;;-0.10;99.90;;;;;;5060193;28;19928;-63
2024/02/09 11:21:05;;;;;;;;;;;-0.20;99.90;;;;;;5057718;28;20027;-62
2024/02/09 11:23:33;;;;;;;;;;;-0.20;99.90;;;;;;5051095;28;19925;-59
2024/02/09 11:26:00;;;;;;;;;;;-0.20;99.90;;;;;;5054555;28;19924;-62
2024/02/09 11:28:27;;;;;;;;;;;-0.20;99.90;;;;;;5059821;28;20028;-58
2024/02/09 11:30:54;;;;;;;;;;;-0.20;99.90;;;;;;5049926;28;19931;-64
2024/02/09 11:33:22;;;;;;;;;;;-0.30;99.90;;;;;;5053152;28;19931;-59
2024/02/09 11:35:49;;;;;;;;;;;-0.30;99.90;;;;;;5053342;28;19964;-62
2024/02/09 11:38:20;;;;;;;;;;;-0.40;99.90;;;;;;5052899;28;19979;-63
2024/02/09 11:40:49;;;;;;;;;;;-0.40;99.90;;;;;;5054392;28;19924;-62
2024/02/09 11:43:16;;;;;;;;;;;-0.50;99.90;;;;;;5056868;28;20153;-72
2024/02/09 11:45:44;;;;;;;;;;;-0.50;99.90;;;;;;5065021;28;19951;-62
2024/02/09 11:48:12;;;;;;;;;;;-0.50;99.90;;;;;;5050949;28;19932;-58
2024/02/09 11:50:39;;;;;;;;;;;-0.50;99.90;;;;;;5058394;28;19930;-63
2024/02/09 11:53:07;;;;;;;;;;;-0.50;99.90;;;;;;5053262;28;19971;-64
2024/02/09 11:55:42;;;;;;;;;;;-0.50;99.90;;;;;;5058351;28;19925;-65
2024/02/09 11:58:11;;;;;;;;;;;-0.50;99.90;;;;;;5058246;28;20574;-58
2024/02/09 12:00:40;;;;;;;;;;;-0.50;99.90;;;;;;5056025;28;19925;-58
2024/02/09 12:03:08;;;;;;;;;;;-0.50;99.90;;;;;;5051959;28;19925;-59
2024/02/09 12:05:42;;;;;;;;;;;-0.50;99.90;;;;;;5061057;28;19925;-58
2024/02/09 12:08:09;;;;;;;;;;;-0.40;99.90;;;;;;5050136;28;19971;-58
2024/02/09 12:10:36;;;;;;;;;;;-0.40;99.90;;;;;;5051080;28;20375;-65
2024/02/09 12:13:05;;;;;;;;;;;-0.40;99.90;;;;;;5051400;28;20369;-58
2024/02/09 12:15:32;;;;;;;;;;;-0.50;99.90;;;;;;5055325;28;19925;-58
2024/02/09 12:18:01;;;;;;;;;;;-0.50;99.90;;;;;;5052611;28;19925;-64
2024/02/09 12:20:28;;;;;;;;;;;-0.50;99.90;;;;;;5055938;28;19956;-59
2024/02/09 12:22:56;;;;;;;;;;;-0.50;99.90;;;;;;5051415;28;19925;-58
2024/02/09 12:25:24;;;;;;;;;;;-0.40;99.90;;;;;;5063670;28;20011;-61
2024/02/09 12:27:55;;;;;;;;;;;-0.40;99.90;;;;;;5050635;28;20055;-59
2024/02/09 12:30:25;;;;;;;;;;;-0.50;99.90;;;;;;5054750;28;19994;-61
2024/02/09 12:32:52;;;;;;;;;;;-0.60;99.90;;;;;;5052526;28;19929;-61
2024/02/09 12:35:25;;;;;;;;;;;-0.60;99.90;;;;;;5060208;28;20366;-62
2024/02/09 12:37:56;;;;;;;;;;;-0.60;99.90;;;;;;5054534;28;19971;-62
2024/02/09 12:40:24;;;;;;;;;;;-0.50;99.90;;;;;;5055305;28;19956;-59
2024/02/09 12:42:53;;;;;;;;;;;-0.60;99.90;;;;;;5051399;28;19924;-59
2024/02/09 12:45:28;;;;;;;;;;;-0.60;99.90;;;;;;5051366;28;19958;-70
2024/02/09 12:47:57;;;;;;;;;;;-0.60;99.90;;;;;;5052680;28;19940;-62
2024/02/09 12:50:26;;;;;;;;;;;-0.70;99.90;;;;;;5054608;28;20026;-62
2024/02/09 12:52:55;;;;;;;;;;;-0.60;99.90;;;;;;5054373;28;20570;-60
2024/02/09 12:55:22;;;;;;;;;;;-0.70;99.90;;;;;;5052016;28;19967;-59
2024/02/09 12:57:54;;;;;;;;;;;-0.70;99.90;;;;;;5052092;28;19932;-70
2024/02/09 13:00:23;;;;;;;;;;;-0.70;99.90;;;;;;5052144;28;20270;-58
2024/02/09 13:02:51;;;;;;;;;;;-0.70;99.90;;;;;;5054816;28;19925;-63
2024/02/09 13:05:18;;;;;;;;;;;-0.70;99.90;;;;;;5055352;28;20036;-70
2024/02/09 13:07:45;;;;;;;;;;;-0.70;99.90;;;;;;5052841;28;20013;-65
2024/02/09 13:10:12;;;;;;;;;;;-0.70;99.90;;;;;;5051066;28;19978;-60
2024/02/09 13:12:40;;;;;;;;;;;-0.70;99.90;;;;;;5053940;28;20416;-62
2024/02/09 13:15:11;;;;;;;;;;;-0.80;99.90;;;;;;5050680;28;20386;-63
2024/02/09 13:17:39;;;;;;;;;;;-0.70;99.90;;;;;;5048775;28;20337;-58
2024/02/09 13:20:08;;;;;;;;;;;-0.70;99.90;;;;;;5049672;28;19932;-58
2024/02/09 13:22:38;;;;;;;;;;;-0.70;99.90;;;;;;5050866;28;19928;-61
2024/02/09 13:25:05;;;;;;;;;;;-0.70;99.90;;;;;;5046969;28;20535;-59
2024/02/09 13:27:32;;;;;;;;;;;-0.80;99.90;;;;;;5049693;28;19956;-68
2024/02/09 13:29:59;;;;;;;;;;;-0.90;99.90;;;;;;5049956;28;20331;-61
2024/02/09 13:32:31;;;;;;;;;;;-0.90;99.90;;;;;;5051890;28;19925;-61
2024/02/09 13:34:58;;;;;;;;;;;-1.00;99.90;;;;;;5053951;28;20015;-74
2024/02/09 13:37:26;;;;;;;;;;;-1.00;99.90;;;;;;5047019;28;19925;-59
2024/02/09 13:39:53;;;;;;;;;;;-1.10;99.90;;;;;;5049771;28;19924;-60
2024/02/09 13:42:22;;;;;;;;;;;-1.10;99.90;;;;;;5049504;28;20359;-58
2024/02/09 13:44:49;;;;;;;;;;;-1.20;99.90;;;;;;5052092;28;19924;-59
2024/02/09 13:47:16;;;;;;;;;;;-1.20;99.90;;;;;;5056220;28;19924;-61
2024/02/09 13:49:44;;;;;;;;;;;-1.20;99.90;;;;;;5050779;28;19925;-59
2024/02/09 13:52:11;;;;;;;;;;;-1.30;99.90;;;;;;5051297;28;19932;-62
2024/02/09 13:54:38;;;;;;;;;;;-1.30;99.90;;;;;;5052552;28;19978;-59
2024/02/09 13:57:05;;;;;;;;;;;-1.30;99.90;;;;;;5052210;28;19979;-63
2024/02/09 13:59:32;;;;;;;;;;;-1.30;99.90;;;;;;5054717;28;20309;-62
2024/02/09 14:02:00;;;;;;;;;;;-1.30;99.90;;;;;;5049033;28;19933;-69
2024/02/09 14:04:27;;;;;;;;;;;-1.30;99.90;;;;;;5056165;28;19947;-62
2024/02/09 14:06:54;;;;;;;;;;;-1.40;99.90;;;;;;5062264;28;19978;-69
2024/02/09 14:09:20;;;;;;;;;;;-1.40;99.90;;;;;;5053933;28;20413;-58
2024/02/09 14:11:47;;;;;;;;;;;-1.40;99.90;;;;;;5050364;28;19955;-58
2024/02/09 14:14:18;;;;;;;;;;;-1.40;99.90;;;;;;5055151;28;20382;-63
2024/02/09 14:16:46;;;;;;;;;;;-1.50;99.90;;;;;;5055346;28;19925;-65
2024/02/09 14:19:13;;;;;;;;;;;-1.50;99.90;;;;;;5062341;28;19931;-60
2024/02/09 14:21:40;;;;;;;;;;;-1.50;99.90;;;;;;5061989;28;19925;-59
2024/02/09 14:24:07;;;;;;;;;;;-1.60;99.90;;;;;;5056160;28;19925;-64
2024/02/09 14:26:34;;;;;;;;;;;-1.60;99.90;;;;;;5058704;28;20733;-65
2024/02/09 14:29:02;;;;;;;;;;;-1.70;99.90;;;;;;5058892;28;20002;-60
2024/02/09 14:31:29;;;;;;;;;;;-1.70;99.90;;;;;;5060717;28;19928;-71
2024/02/09 14:33:57;;;;;;;;;;;-1.70;99.90;;;;;;5057625;28;19931;-59
2024/02/09 14:36:24;;;;;;;;;;;-1.80;99.90;;;;;;5060068;28;19956;-64
2024/02/09 14:38:50;;;;;;;;;;;-1.80;99.90;;;;;;5056792;28;19932;-69
2024/02/09 14:41:18;;;;;;;;;;;-1.80;99.90;;;;;;5059652;28;19924;-59
2024/02/09 14:43:48;;;;;;;;;;;-1.90;99.90;;;;;;5055495;28;19979;-64
2024/02/09 14:46:15;;;;;;;;;;;-1.90;99.90;;;;;;5055227;28;19928;-60
2024/02/09 14:48:42;;;;;;;;;;;-1.90;99.90;;;;;;5056746;28;20040;-63
2024/02/09 14:51:09;;;;;;;;;;;-1.90;99.90;;;;;;5058896;28;19954;-58
2024/02/09 14:53:36;;;;;;;;;;;-2.00;99.90;;;;;;5057450;28;20019;-61
2024/02/09 14:56:05;;;;;;;;;;;-2.00;99.90;;;;;;5054533;28;19982;-61
2024/02/09 14:58:32;;;;;;;;;;;-2.10;99.90;;;;;;5054347;28;19938;-61
2024/02/09 15:00:59;;;;;;;;;;;-2.10;99.90;;;;;;5056371;28;19929;-72
2024/02/09 15:03:26;;;;;;;;;;;-2.20;99.90;;;;;;5056718;28;19982;-61
2024/02/09 15:05:53;;;;;;;;;;;-2.10;99.90;;;;;;5055112;28;20019;-64
2024/02/09 15:08:21;;;;;;;;;;;-2.20;99.90;;;;;;5057429;28;20409;-62
2024/02/09 15:10:48;;;;;;;;;;;-2.20;99.90;;;;;;5055810;28;19986;-60
2024/02/09 15:13:15;;;;;;;;;;;-2.30;99.90;;;;;;5054572;28;19928;-62
2024/02/09 15:15:42;;;;;;;;;;;-2.40;99.90;;;;;;5055145;28;19924;-69
2024/02/09 15:18:09;;;;;;;;;;;-2.40;99.90;;;;;;5052466;28;20035;-60
2024/02/09 15:20:37;;;;;;;;;;;-2.40;99.90;;;;;;5054535;28;19963;-59
2024/02/09 15:23:08;;;;;;;;;;;-2.50;99.90;;;;;;5058485;28;20003;-61
2024/02/09 15:25:34;;;;;;;;;;;-2.50;99.90;;;;;;5059745;28;20396;-60
2024/02/09 15:28:01;;;;;;;;;;;-2.50;99.90;;;;;;5058473;28;19932;-67
2024/02/09 15:30:28;;;;;;;;;;;-2.60;99.90;;;;;;5061186;28;19931;-66
2024/02/09 15:32:55;;;;;;;;;;;-2.60;99.90;;;;;;5062264;28;19924;-58
2024/02/09 15:35:22;;;;;;;;;;;-2.70;99.90;;;;;;5059800;28;19924;-61
2024/02/09 15:37:49;;;;;;;;;;;-2.70;99.90;;;;;;5055226;28;19935;-67
2024/02/09 15:40:20;;;;;;;;;;;-2.80;99.90;;;;;;5056385;28;20017;-62
2024/02/09 15:42:47;;;;;;;;;;;-2.80;99.90;;;;;;5064470;28;19928;-64
2024/02/09 15:45:14;;;;;;;;;;;-2.80;99.90;;;;;;5055766;28;19983;-59
2024/02/09 15:47:42;;;;;;;;;;;-2.80;99.90;;;;;;5056151;28;19924;-59
2024/02/09 15:50:09;;;;;;;;;;;-2.80;99.90;;;;;;5055041;28;20612;-62
2024/02/09 15:52:36;;;;;;;;;;;-2.80;99.90;;;;;;5056855;28;19928;-63
2024/02/09 15:55:03;;;;;;;;;;;-2.90;99.90;;;;;;5060400;28;20022;-60
2024/02/09 15:57:30;;;;;;;;;;;-2.90;99.90;;;;;;5059859;28;19932;-64
2024/02/09 15:59:57;;;;;;;;;;;-2.90;99.90;;;;;;5058780;28;19928;-61
2024/02/09 16:02:23;;;;;;;;;;;-2.90;99.90;;;;;;5057825;28;19998;-60
2024/02/09 16:04:50;;;;;;;;;;;-2.90;99.90;;;;;;5053868;28;19975;-62
2024/02/09 16:07:17;;;;;;;;;;;-2.90;99.90;;;;;;5058205;28;19957;-60
2024/02/09 16:09:45;;;;;;;;;;;-2.90;99.90;;;;;;5054546;28;19935;-63
2024/02/09 16:12:13;;;;;;;;;;;-3.00;99.90;;;;;;5053973;28;19925;-61